createdAt,value
2023-04-11T00:00:54.019Z,19.4644
2023-04-11T00:01:55.684Z,19.4285
2023-04-11T00:02:57.621Z,19.4003
2023-04-11T00:03:59.146Z,19.4141
2023-04-11T00:05:00.739Z,19.4221
2023-04-11T00:06:02.279Z,19.4354
2023-04-11T00:07:03.902Z,19.4449
2023-04-11T00:08:05.642Z,19.4266
2023-04-11T00:09:07.216Z,19.4013
2023-04-11T00:10:08.871Z,19.3892
2023-04-11T00:11:10.649Z,19.3894
2023-04-11T00:12:12.180Z,19.4137
2023-04-11T00:13:13.935Z,19.4262
2023-04-11T00:14:16.097Z,19.4001
2023-04-11T00:15:17.141Z,19.3829
2023-04-11T00:16:18.851Z,19.3712
2023-04-11T00:17:20.471Z,19.3457
2023-04-11T00:18:22.165Z,19.3426
2023-04-11T00:19:23.770Z,19.3375
2023-04-11T00:20:25.449Z,19.3724
2023-04-11T00:21:27.126Z,19.4229
2023-04-11T00:22:28.744Z,19.4543
2023-04-11T00:23:31.292Z,19.4274
2023-04-11T00:24:32.073Z,19.3843
2023-04-11T00:25:33.796Z,19.3531
2023-04-11T00:26:35.370Z,19.3371
2023-04-11T00:27:37.019Z,19.3453
2023-04-11T00:28:38.766Z,19.3839
2023-04-11T00:29:40.417Z,19.3937
2023-04-11T00:30:42.031Z,19.3968
2023-04-11T00:31:43.742Z,19.3736
2023-04-11T00:32:45.366Z,19.3543
2023-04-11T00:33:47.058Z,19.3543
2023-04-11T00:34:48.714Z,19.3490
2023-04-11T00:35:50.364Z,19.3430
2023-04-11T00:36:52.034Z,19.3321
2023-04-11T00:37:53.576Z,19.2978
2023-04-11T00:38:56.001Z,19.2814
2023-04-11T00:39:57.013Z,19.2978
2023-04-11T00:40:58.625Z,19.3155
2023-04-11T00:42:00.321Z,19.3397
2023-04-11T00:43:02.045Z,19.3383
2023-04-11T00:44:03.638Z,19.3288
2023-04-11T00:45:05.264Z,19.3194
2023-04-11T00:46:07.030Z,19.3050
2023-04-11T00:47:08.675Z,19.2378
2023-04-11T00:48:10.227Z,19.2674
2023-04-11T00:49:11.904Z,19.2814
2023-04-11T00:50:13.558Z,19.3116
2023-04-11T00:51:15.291Z,19.3640
2023-04-11T00:52:16.857Z,19.3816
2023-04-11T00:53:18.548Z,19.3636
2023-04-11T00:54:20.213Z,19.3206
2023-04-11T00:55:21.800Z,19.2915
2023-04-11T00:56:23.432Z,19.2826
2023-04-11T00:57:25.155Z,19.2947
2023-04-11T00:58:26.790Z,19.3091
2023-04-11T00:59:28.395Z,19.3321
2023-04-11T01:00:30.176Z,19.3496
2023-04-11T01:01:32.801Z,19.3475
2023-04-11T01:02:33.446Z,19.3161
2023-04-11T01:03:35.160Z,19.2958
2023-04-11T01:04:36.770Z,19.3015
2023-04-11T01:05:38.401Z,19.3266
2023-04-11T01:06:40.032Z,19.3342
2023-04-11T01:07:41.678Z,19.3531
2023-04-11T01:08:43.304Z,19.3473
2023-04-11T01:09:45.006Z,19.3235
2023-04-11T01:10:46.634Z,19.2865
2023-04-11T01:11:48.266Z,19.2837
2023-04-11T01:12:49.906Z,19.2793
2023-04-11T01:13:51.592Z,19.2861
2023-04-11T01:14:53.267Z,19.2966
2023-04-11T01:15:54.927Z,19.3153
2023-04-11T01:16:56.699Z,19.2958
2023-04-11T01:17:58.258Z,19.3120
2023-04-11T01:18:59.901Z,19.3003
2023-04-11T01:20:01.766Z,19.2915
2023-04-11T01:21:03.177Z,19.2783
2023-04-11T01:22:04.755Z,19.2806
2023-04-11T01:23:05.306Z,19.2982
2023-04-11T01:24:08.139Z,19.3084
2023-04-11T01:25:10.247Z,19.3130
2023-04-11T01:26:11.518Z,19.2461
2023-04-11T01:27:13.170Z,19.2280
2023-04-11T01:28:14.891Z,19.2290
2023-04-11T01:29:16.409Z,19.2120
2023-04-11T01:30:18.237Z,19.2551
2023-04-11T01:31:19.728Z,19.2954
2023-04-11T01:32:21.436Z,19.2993
2023-04-11T01:33:23.063Z,19.2837
2023-04-11T01:34:24.755Z,19.2411
2023-04-11T01:35:27.212Z,19.2298
2023-04-11T01:36:28.023Z,19.2247
2023-04-11T01:37:29.590Z,19.2432
2023-04-11T01:38:31.290Z,19.2631
2023-04-11T01:39:33.011Z,19.2779
2023-04-11T01:40:34.649Z,19.2968
2023-04-11T01:41:36.251Z,19.3141
2023-04-11T01:42:38.001Z,19.3091
2023-04-11T01:43:39.529Z,19.3038
2023-04-11T01:44:41.200Z,19.2845
2023-04-11T01:45:42.881Z,19.2830
2023-04-11T01:46:44.561Z,19.2822
2023-04-11T01:47:47.046Z,19.2906
2023-04-11T01:48:47.945Z,19.2968
2023-04-11T01:49:49.485Z,19.2847
2023-04-11T01:50:51.152Z,19.2839
2023-04-11T01:51:52.795Z,19.2693
2023-04-11T01:52:54.524Z,19.2662
2023-04-11T01:53:56.123Z,19.2707
2023-04-11T01:54:58.291Z,19.2878
2023-04-11T01:55:59.416Z,19.2771
2023-04-11T01:57:01.016Z,19.2824
2023-04-11T01:58:02.737Z,19.2890
2023-04-11T01:59:04.393Z,19.2814
2023-04-11T02:00:06.706Z,19.2500
2023-04-11T02:01:07.859Z,19.2444
2023-04-11T02:02:09.471Z,19.2452
2023-04-11T02:03:11.121Z,19.2567
2023-04-11T02:04:12.825Z,19.2530
2023-04-11T02:05:14.344Z,19.2165
2023-04-11T02:06:16.598Z,19.2206
2023-04-11T02:07:17.658Z,19.2068
2023-04-11T02:08:19.218Z,19.2237
2023-04-11T02:09:20.892Z,19.2518
2023-04-11T02:10:22.533Z,19.2541
2023-04-11T02:11:24.322Z,19.2376
2023-04-11T02:12:25.870Z,19.1945
2023-04-11T02:13:27.416Z,19.1857
2023-04-11T02:14:29.133Z,19.1758
2023-04-11T02:15:30.934Z,19.1838
2023-04-11T02:16:32.536Z,19.2091
2023-04-11T02:17:34.226Z,19.2237
2023-04-11T02:18:35.728Z,19.2350
2023-04-11T02:19:37.457Z,19.2551
2023-04-11T02:20:39.140Z,19.2576
2023-04-11T02:21:40.790Z,19.2586
2023-04-11T02:22:42.458Z,19.2617
2023-04-11T02:23:44.147Z,19.2532
2023-04-11T02:24:45.741Z,19.2522
2023-04-11T02:25:48.224Z,19.2465
2023-04-11T02:26:49.148Z,19.2409
2023-04-11T02:27:50.803Z,19.2452
2023-04-11T02:28:52.462Z,19.2555
2023-04-11T02:29:54.031Z,19.2532
2023-04-11T02:30:55.732Z,19.2518
2023-04-11T02:31:57.374Z,19.2374
2023-04-11T02:32:59.028Z,19.2198
2023-04-11T02:34:00.635Z,19.2309
2023-04-11T02:35:02.320Z,19.2270
2023-04-11T02:36:04.110Z,19.2311
2023-04-11T02:37:05.747Z,19.1816
2023-04-11T02:38:07.189Z,19.1645
2023-04-11T02:39:08.912Z,19.1666
2023-04-11T02:40:10.495Z,19.1737
2023-04-11T02:41:12.190Z,19.2023
2023-04-11T02:42:14.583Z,19.2323
2023-04-11T02:43:15.601Z,19.2267
2023-04-11T02:44:17.207Z,19.2076
2023-04-11T02:45:18.881Z,19.1686
2023-04-11T02:46:20.443Z,19.1602
2023-04-11T02:47:22.362Z,19.1497
2023-04-11T02:48:23.861Z,19.1698
2023-04-11T02:49:25.428Z,19.1980
2023-04-11T02:50:27.124Z,19.2144
2023-04-11T02:51:28.816Z,19.2185
2023-04-11T02:52:30.444Z,19.2247
2023-04-11T02:53:32.075Z,19.2428
2023-04-11T02:54:33.806Z,19.2270
2023-04-11T02:55:35.422Z,19.2300
2023-04-11T02:56:37.019Z,19.3414
2023-04-11T02:57:38.648Z,19.5314
2023-04-11T02:58:40.324Z,19.7401
2023-04-11T02:59:41.942Z,19.9221
2023-04-11T03:00:43.644Z,20.1012
2023-04-11T03:01:45.351Z,20.2006
2023-04-11T03:02:46.933Z,20.2661
2023-04-11T03:03:48.595Z,20.2897
2023-04-11T03:04:50.207Z,20.2824
2023-04-11T03:05:51.785Z,20.3049
2023-04-11T03:06:53.438Z,20.3041
2023-04-11T03:07:55.237Z,20.3156
2023-04-11T03:08:57.489Z,20.3581
2023-04-11T03:09:58.526Z,20.3797
2023-04-11T03:11:00.082Z,20.4007
2023-04-11T03:12:01.726Z,20.4005
2023-04-11T03:13:04.312Z,20.4208
2023-04-11T03:14:05.070Z,20.4415
2023-04-11T03:15:06.738Z,20.4611
2023-04-11T03:16:08.435Z,20.4863
2023-04-11T03:17:09.986Z,20.5036
2023-04-11T03:18:11.698Z,20.5130
2023-04-11T03:19:13.423Z,20.5067
2023-04-11T03:20:14.993Z,20.5204
2023-04-11T03:21:16.620Z,20.5447
2023-04-11T03:22:18.256Z,20.5751
2023-04-11T03:23:19.963Z,20.5909
2023-04-11T03:24:21.591Z,20.6040
2023-04-11T03:25:23.335Z,20.6184
2023-04-11T03:26:24.942Z,20.6303
2023-04-11T03:27:26.547Z,20.6170
2023-04-11T03:28:29.236Z,20.6018
2023-04-11T03:29:29.905Z,20.6233
2023-04-11T03:30:31.512Z,20.6611
2023-04-11T03:31:33.195Z,20.6747
2023-04-11T03:32:34.848Z,20.6997
2023-04-11T03:33:37.387Z,20.7090
2023-04-11T03:34:38.198Z,20.7063
2023-04-11T03:35:39.887Z,20.7053
2023-04-11T03:36:41.491Z,20.7223
2023-04-11T03:37:43.076Z,20.7484
2023-04-11T03:38:44.699Z,20.7603
2023-04-11T03:39:46.477Z,20.7768
2023-04-11T03:40:48.070Z,20.7932
2023-04-11T03:41:49.738Z,20.8086
2023-04-11T03:42:51.368Z,20.8152
2023-04-11T03:43:53.013Z,20.7955
2023-04-11T03:44:54.740Z,20.7988
2023-04-11T03:45:56.380Z,20.8287
2023-04-11T03:46:58.067Z,20.8326
2023-04-11T03:47:59.660Z,20.8536
2023-04-11T03:49:01.270Z,20.8700
2023-04-11T03:50:03.291Z,20.8690
2023-04-11T03:51:04.602Z,20.8912
2023-04-11T03:52:06.216Z,20.8934
2023-04-11T03:53:07.854Z,20.8895
2023-04-11T03:54:09.514Z,20.8513
2023-04-11T03:55:11.186Z,20.8639
2023-04-11T03:56:12.822Z,20.8815
2023-04-11T03:57:14.587Z,20.8963
2023-04-11T03:58:16.168Z,20.9146
2023-04-11T03:59:17.816Z,20.9158
2023-04-11T04:00:20.139Z,20.9158
2023-04-11T04:01:21.141Z,20.9218
2023-04-11T04:02:22.957Z,20.9031
2023-04-11T04:03:24.680Z,20.9084
2023-04-11T04:04:26.262Z,20.9284
2023-04-11T04:05:27.752Z,20.9471
2023-04-11T04:06:29.370Z,20.9577
2023-04-11T04:07:31.077Z,20.9773
2023-04-11T04:08:32.690Z,20.9855
2023-04-11T04:09:34.431Z,20.9865
2023-04-11T04:10:35.973Z,20.9822
2023-04-11T04:11:37.665Z,20.9643
2023-04-11T04:12:39.362Z,20.9701
2023-04-11T04:13:40.979Z,20.9863
2023-04-11T04:14:42.662Z,21.0019
2023-04-11T04:15:44.300Z,21.0130
2023-04-11T04:16:46.060Z,21.0183
2023-04-11T04:17:47.618Z,21.0280
2023-04-11T04:18:49.249Z,21.0239
2023-04-11T04:19:50.903Z,21.0311
2023-04-11T04:20:52.533Z,21.0307
2023-04-11T04:21:54.210Z,21.0298
2023-04-11T04:22:55.830Z,21.0383
2023-04-11T04:23:57.622Z,21.0302
2023-04-11T04:24:59.445Z,21.0325
2023-04-11T04:26:00.831Z,21.0132
2023-04-11T04:27:02.528Z,21.0229
2023-04-11T04:28:04.081Z,21.0413
2023-04-11T04:29:05.756Z,21.0590
2023-04-11T04:30:07.462Z,21.0654
2023-04-11T04:31:09.078Z,21.0855
2023-04-11T04:32:10.883Z,21.0851
2023-04-11T04:33:12.535Z,21.0900
2023-04-11T04:34:14.007Z,21.0779
2023-04-11T04:35:15.672Z,21.0728
2023-04-11T04:36:17.225Z,21.0666
2023-04-11T04:37:18.940Z,21.0769
2023-04-11T04:38:20.556Z,21.0865
2023-04-11T04:39:22.208Z,21.0898
2023-04-11T04:40:23.913Z,21.0855
2023-04-11T04:41:25.517Z,21.0621
2023-04-11T04:42:27.172Z,21.0652
2023-04-11T04:43:28.925Z,21.0516
2023-04-11T04:44:30.529Z,21.0413
2023-04-11T04:45:32.374Z,21.0395
2023-04-11T04:46:33.828Z,21.0368
2023-04-11T04:47:35.529Z,21.0370
2023-04-11T04:48:37.124Z,21.0261
2023-04-11T04:49:38.762Z,21.0144
2023-04-11T04:50:40.474Z,21.0146
2023-04-11T04:51:42.072Z,21.0249
2023-04-11T04:52:43.666Z,21.0216
2023-04-11T04:53:45.430Z,21.0239
2023-04-11T04:54:47.078Z,21.0087
2023-04-11T04:55:48.736Z,21.0175
2023-04-11T04:56:50.329Z,21.0165
2023-04-11T04:57:52.051Z,21.0518
2023-04-11T04:58:53.575Z,21.0621
2023-04-11T04:59:55.289Z,21.0767
2023-04-11T05:00:56.952Z,21.1118
2023-04-11T05:01:58.639Z,21.1309
2023-04-11T05:03:00.398Z,21.1422
2023-04-11T05:04:02.489Z,21.1184
2023-04-11T05:05:03.623Z,21.0966
2023-04-11T05:06:05.257Z,21.0884
2023-04-11T05:07:06.873Z,21.0939
2023-04-11T05:08:08.506Z,21.0962
2023-04-11T05:09:10.153Z,21.1026
2023-04-11T05:10:11.832Z,21.1099
2023-04-11T05:11:13.798Z,21.1196
2023-04-11T05:12:15.064Z,21.1204
2023-04-11T05:13:16.704Z,21.1128
2023-04-11T05:14:18.388Z,21.0738
2023-04-11T05:15:20.416Z,21.0393
2023-04-11T05:16:21.817Z,21.0335
2023-04-11T05:17:25.182Z,21.0697
2023-04-11T05:18:25.046Z,21.0964
2023-04-11T05:19:26.681Z,21.1225
2023-04-11T05:20:29.250Z,21.1383
2023-04-11T05:21:30.835Z,21.1194
2023-04-11T05:22:31.625Z,21.0483
2023-04-11T05:23:33.372Z,21.1015
2023-04-11T05:24:34.987Z,21.1619
2023-04-11T05:25:36.754Z,21.2104
2023-04-11T05:26:38.966Z,21.2400
2023-04-11T05:27:39.994Z,21.1999
2023-04-11T05:28:41.782Z,21.1597
2023-04-11T05:29:43.345Z,21.1701
2023-04-11T05:30:44.968Z,21.2422
2023-04-11T05:31:46.924Z,21.2921
2023-04-11T05:32:48.345Z,21.3113
2023-04-11T05:33:51.017Z,21.2813
2023-04-11T05:34:51.635Z,21.2379
2023-04-11T05:35:53.324Z,21.2554
2023-04-11T05:36:54.875Z,21.3049
2023-04-11T05:37:56.742Z,21.3497
2023-04-11T05:38:58.260Z,21.3801
2023-04-11T05:39:59.820Z,21.3657
2023-04-11T05:41:01.453Z,21.3110
2023-04-11T05:42:03.151Z,21.3221
2023-04-11T05:43:04.999Z,21.3823
2023-04-11T05:44:06.390Z,21.4218
2023-04-11T05:45:08.089Z,21.4423
2023-04-11T05:46:09.740Z,21.3953
2023-04-11T05:47:11.595Z,21.3517
2023-04-11T05:48:14.227Z,21.3449
2023-04-11T05:49:14.788Z,21.4086
2023-04-11T05:50:16.483Z,21.4534
2023-04-11T05:51:18.194Z,21.4824
2023-04-11T05:52:19.930Z,21.4507
2023-04-11T05:53:21.376Z,21.4146
2023-04-11T05:54:23.044Z,21.4195
2023-04-11T05:55:24.719Z,21.4996
2023-04-11T05:56:26.352Z,21.5485
2023-04-11T05:57:28.337Z,21.5462
2023-04-11T05:58:29.673Z,21.5148
2023-04-11T05:59:31.364Z,21.4791
2023-04-11T06:00:32.958Z,21.5181
2023-04-11T06:01:34.520Z,21.5937
2023-04-11T06:02:36.295Z,21.6504
2023-04-11T06:03:37.912Z,21.6286
2023-04-11T06:04:40.117Z,21.5670
2023-04-11T06:05:41.133Z,21.5271
2023-04-11T06:06:42.752Z,21.5886
2023-04-11T06:07:44.443Z,21.6494
2023-04-11T06:08:46.159Z,21.6923
2023-04-11T06:09:47.834Z,21.6459
2023-04-11T06:10:49.502Z,21.6077
2023-04-11T06:11:51.124Z,21.5918
2023-04-11T06:12:52.780Z,21.6535
2023-04-11T06:13:54.545Z,21.7048
2023-04-11T06:14:56.019Z,21.7412
2023-04-11T06:15:57.873Z,21.7011
2023-04-11T06:16:59.391Z,21.6806
2023-04-11T06:18:01.196Z,21.6876
2023-04-11T06:19:02.649Z,21.7385
2023-04-11T06:20:05.919Z,21.7901
2023-04-11T06:21:06.125Z,21.7929
2023-04-11T06:22:07.758Z,21.7406
2023-04-11T06:23:09.968Z,21.7136
2023-04-11T06:24:10.915Z,21.7564
2023-04-11T06:25:12.602Z,21.7919
2023-04-11T06:26:14.234Z,21.8344
2023-04-11T06:27:16.844Z,21.8188
2023-04-11T06:28:17.642Z,21.7880
2023-04-11T06:29:19.945Z,21.7814
2023-04-11T06:30:21.051Z,21.8190
2023-04-11T06:31:23.569Z,21.8544
2023-04-11T06:32:24.633Z,21.8837
2023-04-11T06:33:25.755Z,21.8330
2023-04-11T06:34:27.677Z,21.7747
2023-04-11T06:35:29.166Z,21.7654
2023-04-11T06:36:30.787Z,21.8350
2023-04-11T06:37:32.512Z,21.8878
2023-04-11T06:38:34.586Z,21.9014
2023-04-11T06:39:35.825Z,21.8505
2023-04-11T06:40:37.452Z,21.8441
2023-04-11T06:41:39.026Z,21.8689
2023-04-11T06:42:41.050Z,21.9226
2023-04-11T06:43:42.539Z,21.9606
2023-04-11T06:44:44.373Z,21.9191
2023-04-11T06:45:45.652Z,21.8741
2023-04-11T06:46:47.488Z,21.8806
2023-04-11T06:47:49.075Z,21.9365
2023-04-11T06:48:50.634Z,21.9893
2023-04-11T06:49:52.240Z,21.9860
2023-04-11T06:50:55.046Z,21.9382
2023-04-11T06:51:55.548Z,21.9055
2023-04-11T06:52:57.299Z,21.9032
2023-04-11T06:53:58.888Z,21.9895
2023-04-11T06:55:00.564Z,22.0246
2023-04-11T06:56:02.164Z,22.0421
2023-04-11T06:57:03.881Z,22.0035
2023-04-11T06:58:05.355Z,21.9575
2023-04-11T06:59:07.301Z,21.9809
2023-04-11T07:00:08.727Z,22.0493
2023-04-11T07:01:10.373Z,22.0883
2023-04-11T07:02:12.112Z,22.0661
2023-04-11T07:03:13.797Z,22.0168
2023-04-11T07:04:15.516Z,21.9912
2023-04-11T07:05:16.981Z,22.0142
2023-04-11T07:06:18.696Z,22.0801
2023-04-11T07:07:20.318Z,22.1503
2023-04-11T07:08:21.894Z,22.1516
2023-04-11T07:09:23.592Z,22.0900
2023-04-11T07:10:25.258Z,22.0637
2023-04-11T07:11:26.950Z,22.0485
2023-04-11T07:12:28.458Z,22.1362
2023-04-11T07:13:30.904Z,22.1879
2023-04-11T07:14:31.904Z,22.1890
2023-04-11T07:15:33.463Z,22.1518
2023-04-11T07:16:35.170Z,22.1187
2023-04-11T07:17:36.967Z,22.1255
2023-04-11T07:18:38.400Z,22.1838
2023-04-11T07:19:40.103Z,22.2286
2023-04-11T07:20:41.725Z,22.2331
2023-04-11T07:21:43.405Z,22.2023
2023-04-11T07:22:45.032Z,22.1684
2023-04-11T07:23:46.661Z,22.1787
2023-04-11T07:24:48.340Z,22.2621
2023-04-11T07:25:49.953Z,22.3122
2023-04-11T07:26:51.798Z,22.3091
2023-04-11T07:27:53.334Z,22.2703
2023-04-11T07:28:54.972Z,22.2481
2023-04-11T07:29:56.830Z,22.2748
2023-04-11T07:30:58.244Z,22.3358
2023-04-11T07:31:59.863Z,22.3849
2023-04-11T07:33:01.505Z,22.3718
2023-04-11T07:34:03.135Z,22.3124
2023-04-11T07:35:05.050Z,22.2713
2023-04-11T07:36:06.499Z,22.2962
2023-04-11T07:37:08.081Z,22.3498
2023-04-11T07:38:09.790Z,22.3962
2023-04-11T07:39:11.460Z,22.4125
2023-04-11T07:40:13.522Z,22.3761
2023-04-11T07:41:14.694Z,22.3165
2023-04-11T07:42:16.311Z,22.2773
2023-04-11T07:43:18.116Z,22.2555
2023-04-11T07:44:19.825Z,22.2568
2023-04-11T07:45:21.365Z,22.2814
2023-04-11T07:46:22.949Z,22.3134
2023-04-11T07:47:24.603Z,22.3017
2023-04-11T07:48:26.344Z,22.2726
2023-04-11T07:49:27.948Z,22.2492
2023-04-11T07:50:29.768Z,22.3352
2023-04-11T07:51:31.154Z,22.3796
2023-04-11T07:52:32.911Z,22.3950
2023-04-11T07:53:34.504Z,22.3434
2023-04-11T07:54:36.101Z,22.3040
2023-04-11T07:55:37.837Z,22.2867
2023-04-11T07:56:40.405Z,22.3818
2023-04-11T07:57:41.087Z,22.4404
2023-04-11T07:58:42.772Z,22.4663
2023-04-11T07:59:44.572Z,22.4509
2023-04-11T08:00:45.991Z,22.4217
2023-04-11T08:01:47.775Z,22.4051
2023-04-11T08:02:50.356Z,22.4260
2023-04-11T08:03:51.076Z,22.4513
2023-04-11T08:04:52.754Z,22.4757
2023-04-11T08:05:54.239Z,22.4550
2023-04-11T08:06:55.896Z,22.4055
2023-04-11T08:07:57.568Z,22.3829
2023-04-11T08:08:59.285Z,22.3272
2023-04-11T08:10:00.848Z,22.4330
2023-04-11T08:11:02.506Z,22.4993
2023-04-11T08:12:04.200Z,22.5250
2023-04-11T08:13:05.856Z,22.4950
2023-04-11T08:14:07.416Z,22.4811
2023-04-11T08:15:09.167Z,22.5238
2023-04-11T08:16:10.837Z,22.5983
2023-04-11T08:17:25.143Z,22.6731
2023-04-11T08:18:14.068Z,22.7031
2023-04-11T08:19:15.698Z,22.6743
2023-04-11T08:20:17.416Z,22.6329
2023-04-11T08:21:19.045Z,22.6723
2023-04-11T08:22:21.022Z,22.7460
2023-04-11T08:23:22.384Z,22.8233
2023-04-11T08:24:23.962Z,22.8533
2023-04-11T08:25:25.630Z,22.8391
2023-04-11T08:26:27.957Z,22.8116
2023-04-11T08:27:28.912Z,22.8200
2023-04-11T08:28:30.714Z,22.9235
2023-04-11T08:29:32.436Z,22.9745
2023-04-11T08:30:33.868Z,22.9455
2023-04-11T08:31:35.456Z,22.8869
2023-04-11T08:32:37.420Z,22.8389
2023-04-11T08:33:38.713Z,22.8391
2023-04-11T08:34:40.389Z,22.8676
2023-04-11T08:35:42.112Z,22.8997
2023-04-11T08:36:43.712Z,22.8771
2023-04-11T08:37:45.938Z,22.8001
2023-04-11T08:38:47.023Z,22.7245
2023-04-11T08:39:48.709Z,22.7212
2023-04-11T08:40:50.532Z,22.7812
2023-04-11T08:41:52.201Z,22.8181
2023-04-11T08:42:53.633Z,22.8101
2023-04-11T08:43:55.572Z,22.7771
2023-04-11T08:44:56.925Z,22.7623
2023-04-11T08:45:58.569Z,22.7577
2023-04-11T08:47:00.283Z,22.7769
2023-04-11T08:48:01.907Z,22.8335
2023-04-11T08:49:03.703Z,22.8796
2023-04-11T08:50:05.091Z,22.8859
2023-04-11T08:51:06.807Z,22.8777
2023-04-11T08:52:08.807Z,22.8625
2023-04-11T08:53:10.055Z,22.9077
2023-04-11T08:54:11.726Z,22.9847
2023-04-11T08:55:13.413Z,23.0184
2023-04-11T08:56:15.023Z,22.9888
2023-04-11T08:57:16.722Z,22.9225
2023-04-11T08:58:18.414Z,22.8625
2023-04-11T08:59:20.052Z,22.9260
2023-04-11T09:00:21.613Z,22.9909
2023-04-11T09:01:23.355Z,23.0252
2023-04-11T09:02:25.109Z,22.9901
2023-04-11T09:03:26.605Z,22.9204
2023-04-11T09:04:29.073Z,22.9352
2023-04-11T09:05:30.202Z,23.0301
2023-04-11T09:06:31.598Z,23.1145
2023-04-11T09:07:33.216Z,23.1447
2023-04-11T09:08:34.830Z,23.0854
2023-04-11T09:09:36.471Z,23.0065
2023-04-11T09:10:38.089Z,23.0431
2023-04-11T09:11:39.764Z,23.1386
2023-04-11T09:12:41.408Z,23.2195
2023-04-11T09:13:43.817Z,23.2271
2023-04-11T09:14:44.694Z,23.1854
2023-04-11T09:15:46.451Z,23.1729
2023-04-11T09:16:47.898Z,23.2663
2023-04-11T09:17:49.546Z,23.3892
2023-04-11T09:18:51.209Z,23.4929
2023-04-11T09:19:52.872Z,23.5071
2023-04-11T09:20:54.584Z,23.4600
2023-04-11T09:21:56.205Z,23.4027
2023-04-11T09:22:57.821Z,23.5161
2023-04-11T09:23:59.427Z,23.6599
2023-04-11T09:25:01.146Z,23.7511
2023-04-11T09:26:02.840Z,23.7306
2023-04-11T09:27:04.454Z,23.6644
2023-04-11T09:28:06.137Z,23.6447
2023-04-11T09:29:07.746Z,23.7378
2023-04-11T09:30:09.397Z,23.8314
2023-04-11T09:31:11.423Z,23.8678
2023-04-11T09:32:13.403Z,23.8240
2023-04-11T09:33:14.359Z,23.7378
2023-04-11T09:34:16.414Z,23.7770
2023-04-11T09:35:18.236Z,23.8378
2023-04-11T09:36:19.330Z,23.9271
2023-04-11T09:37:21.050Z,23.9212
2023-04-11T09:38:22.825Z,23.8045
2023-04-11T09:39:24.296Z,23.7055
2023-04-11T09:40:25.905Z,23.7295
2023-04-11T09:41:27.813Z,23.8140
2023-04-11T09:42:29.311Z,23.8639
2023-04-11T09:43:30.922Z,23.8185
2023-04-11T09:44:32.701Z,23.7263
2023-04-11T09:45:44.212Z,23.6392
2023-04-11T09:46:35.809Z,23.6684
2023-04-11T09:47:37.498Z,23.7869
2023-04-11T09:48:46.502Z,23.8540
2023-04-11T09:49:40.837Z,23.8435
2023-04-11T09:50:42.448Z,23.7542
2023-04-11T09:51:44.025Z,23.6622
2023-04-11T09:52:45.689Z,23.7400
2023-04-11T09:53:47.397Z,23.8411
2023-04-11T09:54:48.980Z,23.9237
2023-04-11T09:55:50.662Z,23.9185
2023-04-11T09:56:52.348Z,23.8368
2023-04-11T09:57:54.918Z,23.7829
2023-04-11T09:58:55.872Z,23.7934
2023-04-11T09:59:58.789Z,23.9023
2023-04-11T10:00:58.814Z,23.9713
2023-04-11T10:02:00.625Z,23.9448
2023-04-11T10:03:02.613Z,23.8715
2023-04-11T10:04:04.589Z,23.8292
2023-04-11T10:05:05.609Z,23.9481
2023-04-11T10:06:07.215Z,24.0605
2023-04-11T10:07:08.842Z,24.1350
2023-04-11T10:08:10.515Z,24.0956
2023-04-11T10:09:12.182Z,24.0374
2023-04-11T10:10:13.783Z,24.0149
2023-04-11T10:11:15.438Z,24.1192
2023-04-11T10:12:17.149Z,24.2194
2023-04-11T10:13:18.840Z,24.2718
2023-04-11T10:14:20.532Z,24.2186
2023-04-11T10:15:21.981Z,24.1720
2023-04-11T10:16:23.821Z,24.1451
2023-04-11T10:17:25.411Z,24.2400
2023-04-11T10:18:27.004Z,24.3452
2023-04-11T10:19:28.686Z,24.4023
2023-04-11T10:20:30.319Z,24.3421
2023-04-11T10:21:32.026Z,24.2846
2023-04-11T10:22:33.576Z,24.2318
2023-04-11T10:23:35.272Z,24.3862
2023-04-11T10:24:36.972Z,24.4930
2023-04-11T10:25:38.559Z,24.5156
2023-04-11T10:26:40.173Z,24.4390
2023-04-11T10:27:41.841Z,24.3661
2023-04-11T10:28:43.726Z,24.3378
2023-04-11T10:29:45.282Z,24.4462
2023-04-11T10:30:46.866Z,24.5167
2023-04-11T10:31:48.634Z,24.5257
2023-04-11T10:32:50.191Z,24.4304
2023-04-11T10:33:51.989Z,24.3657
2023-04-11T10:34:53.556Z,24.3406
2023-04-11T10:35:55.171Z,24.4711
2023-04-11T10:36:56.764Z,24.5442
2023-04-11T10:37:58.990Z,24.5364
2023-04-11T10:39:00.090Z,24.4452
2023-04-11T10:40:01.816Z,24.3754
2023-04-11T10:41:03.470Z,24.4224
2023-04-11T10:42:05.032Z,24.5356
2023-04-11T10:43:07.499Z,24.5853
2023-04-11T10:44:08.362Z,24.5518
2023-04-11T10:45:10.144Z,24.4548
2023-04-11T10:46:11.590Z,24.3345
2023-04-11T10:47:13.593Z,24.3790
2023-04-11T10:48:14.911Z,24.4742
2023-04-11T10:49:16.578Z,24.5257
2023-04-11T10:50:18.655Z,24.4639
2023-04-11T10:51:19.891Z,24.3324
2023-04-11T10:52:21.570Z,24.2513
2023-04-11T10:53:23.217Z,24.2817
2023-04-11T10:54:24.883Z,24.3392
2023-04-11T10:55:27.086Z,24.3885
2023-04-11T10:56:28.184Z,24.3162
2023-04-11T10:57:29.841Z,24.2131
2023-04-11T10:58:31.475Z,24.1321
2023-04-11T10:59:33.097Z,24.1960
2023-04-11T11:00:35.198Z,24.3135
2023-04-11T11:01:42.966Z,24.3505
2023-04-11T11:02:38.425Z,24.2699
2023-04-11T11:03:39.926Z,24.1708
2023-04-11T11:04:41.417Z,24.0878
2023-04-11T11:05:42.997Z,24.1666
2023-04-11T11:06:51.103Z,24.2566
2023-04-11T11:07:46.251Z,24.2993
2023-04-11T11:08:48.397Z,24.2513
2023-04-11T11:09:49.514Z,24.1722
2023-04-11T11:10:51.274Z,24.1535
2023-04-11T11:11:52.818Z,24.2476
2023-04-11T11:12:54.549Z,24.3692
2023-04-11T11:13:56.490Z,24.4322
2023-04-11T11:14:57.814Z,24.3780
2023-04-11T11:15:59.418Z,24.2749
2023-04-11T11:17:01.222Z,24.2166
2023-04-11T11:18:02.756Z,24.2891
2023-04-11T11:19:04.872Z,24.3688
2023-04-11T11:20:06.039Z,24.4000
2023-04-11T11:21:14.170Z,24.3532
2023-04-11T11:22:09.307Z,24.2639
2023-04-11T11:23:14.125Z,24.2381
2023-04-11T11:24:17.585Z,24.3126
2023-04-11T11:25:19.189Z,24.3832
2023-04-11T11:26:20.806Z,24.3688
2023-04-11T11:27:22.413Z,24.2581
2023-04-11T11:28:24.169Z,24.1438
2023-04-11T11:29:25.798Z,24.1081
2023-04-11T11:30:27.357Z,24.2207
2023-04-11T11:31:30.033Z,24.2677
2023-04-11T11:32:30.641Z,24.2800
2023-04-11T11:33:32.396Z,24.1761
2023-04-11T11:34:34.056Z,24.0791
2023-04-11T11:35:35.688Z,24.0627
2023-04-11T11:36:37.249Z,24.1625
2023-04-11T11:37:38.896Z,24.2272
2023-04-11T11:38:41.390Z,24.2359
2023-04-11T11:39:42.238Z,24.1365
2023-04-11T11:40:43.807Z,24.0268
2023-04-11T11:41:46.560Z,23.9884
2023-04-11T11:42:47.140Z,24.0779
2023-04-11T11:43:48.736Z,24.1297
2023-04-11T11:44:50.550Z,24.1081
2023-04-11T11:45:52.138Z,23.9997
2023-04-11T11:46:53.742Z,23.9315
2023-04-11T11:47:55.886Z,23.9255
2023-04-11T11:48:57.288Z,23.9890
2023-04-11T11:49:58.668Z,24.0605
2023-04-11T11:51:01.008Z,24.0438
2023-04-11T11:52:02.099Z,23.9403
2023-04-11T11:53:03.702Z,23.8629
2023-04-11T11:54:05.351Z,23.9062
2023-04-11T11:55:10.860Z,24.0529
2023-04-11T11:56:08.713Z,24.1760
2023-04-11T11:57:10.680Z,24.2309
2023-04-11T11:58:12.153Z,24.2034
2023-04-11T11:59:13.672Z,24.1658
2023-04-11T12:00:15.290Z,24.1765
2023-04-11T12:01:17.196Z,24.2607
2023-04-11T12:02:18.691Z,24.2901
2023-04-11T12:03:20.608Z,24.2275
2023-04-11T12:04:22.189Z,24.1642
2023-04-11T12:05:23.864Z,24.1334
2023-04-11T12:06:25.419Z,24.1675
2023-04-11T12:07:27.010Z,24.2392
2023-04-11T12:08:28.553Z,24.2813
2023-04-11T12:09:30.208Z,24.2687
2023-04-11T12:10:31.894Z,24.2492
2023-04-11T12:11:34.013Z,24.2379
2023-04-11T12:12:35.180Z,24.3028
2023-04-11T12:13:36.856Z,24.3700
2023-04-11T12:14:38.417Z,24.3624
2023-04-11T12:15:40.100Z,24.3063
2023-04-11T12:16:41.798Z,24.2677
2023-04-11T12:17:43.435Z,24.2782
2023-04-11T12:18:45.131Z,24.3431
2023-04-11T12:19:46.776Z,24.3910
2023-04-11T12:20:48.364Z,24.3885
2023-04-11T12:21:50.030Z,24.3447
2023-04-11T12:22:53.674Z,24.3020
2023-04-11T12:23:53.540Z,24.3050
2023-04-11T12:24:54.840Z,24.3431
2023-04-11T12:25:56.668Z,24.3912